Kekaha, HI

3:15 AM HST on June 24, 2017 (GMT -1000)
LizKauai | | Change Station
Active Advisory: Special Statement

Elev 62 ft 21.96 °N, 159.67 °W | Updated 10 minutes ago

Clear
Clear
70.3 °F
Feels Like 70.3 °F
N
0.0
Wind Variable Wind from South

Today
High -- | Low -- °F
--% Chance of Precip.
Yesterday
High -- | Low -- °F
Precip. -- in
Pressure 29.98 in
Visibility 10.0 miles
Clouds Clear
Dew Point 66 °F
Humidity 86%
Rainfall 1.00 in
Snow Depth Not available.
5:57 AM 7:25 PM
New Moon, 0% visible
METAR PHBK 241256Z AUTO 07004KT 10SM CLR 23/19 A2997 RMK AO2 SLP151 T02280194
Pressure 29.98 in
Visibility 10.0 miles
Clouds Clear
Dew Point 66 °F
Humidity 86%
Rainfall 1.00 in
Snow Depth Not available.
5:57 AM 7:25 PM
New Moon, 0% visible
METAR PHBK 241256Z AUTO 07004KT 10SM CLR 23/19 A2997 RMK AO2 SLP151 T02280194

Get Your Daily Forecast Email!

Thanks for signing up!

Be on the lookout for a verification email in your inbox.

You'll start receiving severe weather alerts in your inbox..

×

10-Day Weather Forecast

Almanac

Astronomy

Jun. 24, 2017 Rise Set
Actual Time
Civil Twilight
Nautical Twilight
Astronomical Twilight
Moon
Length of Visible Light
Length of Day
Tomorrow will be .
, % of the Moon is Illuminated

Today's Extremes

State Highs State Lows

Community

WunderPhotos

Category 6

Welcome to Category 6. This is the collective home for Weather Underground's featured writeups by Dr. Jeff Masters (right), Bob Henson (left), Chris Burt, and other regular contributors.

Nearby

Air Quality

  Air Quality AQ Index Pollutant
Not available.

Snow Depth

Station Depth Elevation

Earthquake Activity

City Distance Mag. Time & Date
Minimum magnitude displayed is 2.5.

Coastal Water Temperatures

Place Temperature

Stations

Nearby Weather Stations

Station Location Temp. Windchill Dew Point Humidity Wind Precip. Elev Updated Type
                   

Watches & Warnings

Special Statement
Issued: 3:53 AM HST Jun. 22, 2017 – National Weather Service

... Coastal flooding possible...

Coastal flooding associated with King tides will be a possibility
the next couple of days, especially along south facing shores,
where surf will be elevated. The greatest potential for coastal
flooding impacts will be during the mid to late afternoon hours
through Saturday, when highest tides are expected. Visit
tidesandcurrents.NOAA.Gov for more specific information about
forecast tides and water levels in your area.

Impacts may include flooding of beaches that are normally dry,
salt water inundation of typically vulnerable low-lying roads,
docks, boat ramps and other coastal infrastructure. The
potential for coastal flooding will diminish from Sunday into
next week as the peak daily tides diminish.


Birchard